Time;durP1;ratioP1;P1;durP2;ratioP2;P2;SDS_P1;SDS_P2;PMS_P1;PMS_P2;Temp;Humidity;BMP_temperature;BMP_pressure;BME280_temperature;BME280_humidity;BME280_pressure;Samples;Min_cycle;Max_cycle;Signal;HPM_P1;HPM_P2
2024/04/09 00:01:42;;;;;;;0.00;0.00;;;;;;;20.21;45.18;98073.00;5426969;26;19998;-59
2024/04/09 00:04:12;;;;;;;0.10;0.10;;;;;;;20.33;44.77;98074.19;5436462;26;20006;-59
2024/04/09 00:06:38;;;;;;;0.10;0.10;;;;;;;20.44;44.50;98078.88;5462011;26;20011;-59
2024/04/09 00:09:11;;;;;;;0.00;0.00;;;;;;;20.74;43.32;98078.72;5462995;26;20010;-59
2024/04/09 00:11:43;;;;;;;0.00;0.00;;;;;;;20.91;42.71;98077.75;5461790;26;20014;-59
2024/04/09 00:14:14;;;;;;;0.10;0.10;;;;;;;20.96;42.49;98095.81;5469333;26;19998;-59
2024/04/09 00:16:47;;;;;;;0.00;0.00;;;;;;;21.04;42.52;98087.53;5431405;26;20408;-59
2024/04/09 00:19:17;;;;;;;0.00;0.00;;;;;;;20.91;42.51;98096.81;5439205;26;20003;-59
2024/04/09 00:21:44;;;;;;;0.00;0.00;;;;;;;21.00;41.90;98088.56;5465450;26;20709;-59
2024/04/09 00:24:15;;;;;;;0.00;0.00;;;;;;;21.15;41.79;98068.81;5467164;26;20010;-59
2024/04/09 00:26:44;;;;;;;0.00;0.00;;;;;;;21.21;41.40;98042.91;5458271;26;20017;-59
2024/04/09 00:29:15;;;;;;;0.00;0.00;;;;;;;21.32;41.15;98038.59;5423050;26;20042;-59
2024/04/09 00:31:44;;;;;;;0.00;0.00;;;;;;;21.27;41.40;98035.31;5451952;26;20068;-59
2024/04/09 00:34:13;;;;;;;0.00;0.00;;;;;;;21.24;41.19;98022.38;5462873;26;20040;-59
2024/04/09 00:36:40;;;;;;;0.00;0.00;;;;;;;21.16;41.50;98034.19;5450939;26;20010;-59
2024/04/09 00:39:19;;;;;;;0.08;0.08;;;;;;;21.08;41.92;98033.16;5455914;26;20952;-59
2024/04/09 00:41:47;;;;;;;0.00;0.00;;;;;;;20.98;42.27;98025.44;5464684;26;20023;-60
2024/04/09 00:44:18;;;;;;;0.00;0.00;;;;;;;20.94;42.21;98033.50;5424040;26;20263;-59
2024/04/09 00:46:46;;;;;;;0.00;0.00;;;;;;;21.03;41.95;98034.19;5449268;26;20007;-59
2024/04/09 00:49:16;;;;;;;0.00;0.00;;;;;;;21.07;41.72;98039.75;5466572;26;20002;-59
2024/04/09 00:51:47;;;;;;;;;;;;;;;21.07;41.71;98037.03;5458429;26;20064;-59
2024/04/09 00:54:17;;;;;;;0.00;0.00;;;;;;;20.98;41.96;98044.50;5449102;26;19985;-59
2024/04/09 00:56:47;;;;;;;0.00;0.00;;;;;;;20.79;42.08;98043.16;5465616;26;20046;-59
2024/04/09 00:59:21;;;;;;;0.00;0.00;;;;;;;20.68;42.51;98041.97;5449279;26;20013;-59
2024/04/09 01:01:48;;;;;;;0.00;0.00;;;;;;;20.59;42.66;98038.56;5419750;26;20088;-60
2024/04/09 01:04:17;;;;;;;0.00;0.00;;;;;;;20.54;42.83;98036.81;5455982;26;20003;-59
2024/04/09 01:06:47;;;;;;;0.00;0.00;;;;;;;20.53;42.58;98037.16;5450026;26;20111;-59
2024/04/09 01:09:16;;;;;;;0.00;0.00;;;;;;;20.66;42.48;98036.06;5453402;26;20002;-59
2024/04/09 01:11:45;;;;;;;0.00;0.00;;;;;;;20.54;42.84;98044.97;5461284;26;20013;-56
2024/04/09 01:14:14;;;;;;;0.00;0.00;;;;;;;20.40;43.34;98050.75;5429943;26;20220;-60
2024/04/09 01:16:45;;;;;;;0.10;0.10;;;;;;;20.34;43.96;98060.22;5468415;26;19998;-59
2024/04/09 01:19:13;;;;;;;0.08;0.08;;;;;;;20.19;44.24;98058.13;5423950;26;20007;-59
2024/04/09 01:21:40;;;;;;;0.00;0.00;;;;;;;20.19;44.49;98052.69;5457126;26;20570;-59
2024/04/09 01:24:11;;;;;;;0.10;0.10;;;;;;;20.01;44.90;98057.50;5452559;26;20084;-59
2024/04/09 01:26:41;;;;;;;0.13;0.08;;;;;;;19.88;45.33;98064.00;5455512;26;20535;-59
2024/04/09 01:29:12;;;;;;;0.00;0.00;;;;;;;19.95;44.76;98067.00;5463167;26;20037;-59
2024/04/09 01:31:46;;;;;;;0.00;0.00;;;;;;;19.87;45.37;98076.00;5463057;26;20390;-57
2024/04/09 01:34:15;;;;;;;0.00;0.00;;;;;;;19.79;45.18;98083.09;5435659;26;19994;-59
2024/04/09 01:36:51;;;;;;;0.00;0.00;;;;;;;19.81;45.01;98091.72;5455626;26;20136;-59
2024/04/09 01:39:22;;;;;;;0.00;0.00;;;;;;;19.77;45.57;98096.25;5430332;26;20029;-59
2024/04/09 01:41:49;;;;;;;0.08;0.08;;;;;;;19.53;46.60;98100.34;5451902;26;20082;-57
2024/04/09 01:44:17;;;;;;;0.00;0.00;;;;;;;19.19;50.01;98098.59;5454229;26;20397;-57
2024/04/09 01:46:48;;;;;;;0.00;0.00;;;;;;;18.67;51.95;98099.56;5463470;26;19998;-57
2024/04/09 01:49:17;;;;;;;0.00;0.00;;;;;;;18.47;53.79;98121.91;5436628;26;20456;-57
2024/04/09 01:51:43;;;;;;;0.00;0.00;;;;;;;18.26;54.20;98128.00;5461344;26;20547;-58
2024/04/09 01:54:12;;;;;;;0.00;0.00;;;;;;;18.13;54.79;98139.03;5435136;26;20310;-57
2024/04/09 01:56:41;;;;;;;0.15;0.15;;;;;;;18.10;54.95;98140.47;5456094;26;20003;-58
2024/04/09 01:59:11;;;;;;;0.07;0.03;;;;;;;17.85;55.88;98145.53;5455762;26;20449;-58
2024/04/09 02:01:40;;;;;;;0.00;0.00;;;;;;;18.20;52.38;98134.72;5460377;26;20249;-58
2024/04/09 02:04:10;;;;;;;0.10;0.10;;;;;;;18.50;50.97;98140.28;5454865;26;19999;-58
2024/04/09 02:06:41;;;;;;;0.00;0.00;;;;;;;18.63;49.85;98152.06;5428792;26;20023;-58
2024/04/09 02:09:10;;;;;;;0.00;0.00;;;;;;;18.64;49.91;98159.88;5441271;26;20349;-59
2024/04/09 02:11:36;;;;;;;0.10;0.10;;;;;;;18.60;51.49;98169.81;5435572;26;20517;-58
2024/04/09 02:14:08;;;;;;;0.00;0.00;;;;;;;18.60;50.02;98177.94;5456179;26;20539;-58
2024/04/09 02:16:35;;;;;;;0.00;0.00;;;;;;;18.66;49.59;98173.94;5457199;26;20088;-59
2024/04/09 02:19:03;;;;;;;0.10;0.10;;;;;;;18.58;50.30;98169.31;5444826;26;20025;-58
2024/04/09 02:21:31;;;;;;;0.00;0.00;;;;;;;18.47;51.16;98171.56;5460023;26;19998;-58
2024/04/09 02:24:01;;;;;;;0.00;0.00;;;;;;;18.44;51.38;98165.97;5461454;26;20014;-58
2024/04/09 02:26:29;;;;;;;0.00;0.00;;;;;;;18.18;53.53;98172.19;5459543;26;19998;-58
2024/04/09 02:28:57;;;;;;;0.00;0.00;;;;;;;17.98;54.07;98198.00;5435043;26;21191;-58
2024/04/09 02:31:27;;;;;;;0.00;0.00;;;;;;;17.69;59.15;98207.44;5455777;26;20006;-58
2024/04/09 02:33:56;;;;;;;0.00;0.00;;;;;;;17.45;61.10;98212.47;5467097;26;20002;-58
2024/04/09 02:36:22;;;;;;;0.00;0.00;;;;;;;17.40;62.03;98207.19;5460423;26;20007;-58
2024/04/09 02:38:52;;;;;;;0.00;0.00;;;;;;;17.29;62.78;98198.53;5452312;26;20021;-58
2024/04/09 02:41:18;;;;;;;0.00;0.00;;;;;;;17.34;65.01;98190.28;5458410;26;20427;-58
2024/04/09 02:43:47;;;;;;;0.10;0.10;;;;;;;17.17;64.91;98182.06;5449077;26;20007;-58
2024/04/09 02:46:16;;;;;;;0.00;0.00;;;;;;;17.12;66.21;98188.41;5450467;26;20021;-58
2024/04/09 02:48:47;;;;;;;0.00;0.00;;;;;;;17.02;66.87;98186.78;5447563;26;20013;-58
2024/04/09 02:51:14;;;;;;;0.00;0.00;;;;;;;16.88;69.79;98167.13;5457952;26;20010;-58
2024/04/09 02:53:43;;;;;;;0.00;0.00;;;;;;;16.75;70.97;98184.19;5469043;26;20006;-58
2024/04/09 02:56:13;;;;;;;0.00;0.00;;;;;;;16.66;70.55;98207.69;5428540;26;20017;-58
2024/04/09 02:58:45;;;;;;;0.00;0.00;;;;;;;16.55;70.28;98234.19;5437102;26;20104;-58
2024/04/09 03:01:14;;;;;;;0.00;0.00;;;;;;;16.69;68.52;98245.72;5467645;26;20086;-58
2024/04/09 03:03:43;;;;;;;0.00;0.00;;;;;;;16.65;67.91;98271.00;5441664;26;19998;-58
2024/04/09 03:06:13;;;;;;;0.00;0.00;;;;;;;16.60;68.33;98280.84;5453736;26;20017;-58
2024/04/09 03:08:41;;;;;;;0.00;0.00;;;;;;;16.60;69.10;98288.97;5430804;26;20794;-58
2024/04/09 03:11:11;;;;;;;0.00;0.00;;;;;;;16.64;69.07;98301.88;5465249;26;20002;-58
2024/04/09 03:13:40;;;;;;;0.10;0.10;;;;;;;16.68;69.17;98308.28;5469183;26;20604;-58
2024/04/09 03:16:13;;;;;;;0.08;0.08;;;;;;;16.73;69.04;98311.66;5466076;26;20312;-58
2024/04/09 03:18:42;;;;;;;0.10;0.10;;;;;;;16.74;69.35;98301.63;5455622;26;20006;-58
2024/04/09 03:21:08;;;;;;;0.00;0.00;;;;;;;16.88;67.65;98299.72;5465846;26;19999;-58
2024/04/09 03:23:40;;;;;;;0.10;0.10;;;;;;;16.99;67.62;98306.47;5466892;26;19998;-59
2024/04/09 03:26:06;;;;;;;0.00;0.00;;;;;;;16.92;67.67;98319.63;5462143;26;20006;-59
2024/04/09 03:28:35;;;;;;;0.00;0.00;;;;;;;16.98;67.36;98339.28;5426626;26;20038;-58
2024/04/09 03:31:02;;;;;;;0.00;0.00;;;;;;;16.98;67.30;98344.69;5467342;26;20398;-58
2024/04/09 03:33:31;;;;;;;0.00;0.00;;;;;;;16.82;68.58;98368.59;5427172;26;20018;-58
2024/04/09 03:35:59;;;;;;;0.00;0.00;;;;;;;16.74;70.00;98369.28;5464338;26;20013;-58
2024/04/09 03:38:29;;;;;;;0.10;0.10;;;;;;;16.48;71.23;98369.81;5450336;26;20006;-58
2024/04/09 03:41:02;;;;;;;0.00;0.00;;;;;;;16.45;71.99;98375.84;5443883;26;20384;-58
2024/04/09 03:43:31;;;;;;;0.00;0.00;;;;;;;16.38;73.28;98391.66;5463248;26;20003;-58
2024/04/09 03:46:06;;;;;;;0.00;0.00;;;;;;;16.42;73.23;98387.22;5453699;26;20014;-59
2024/04/09 03:48:35;;;;;;;0.00;0.00;;;;;;;16.50;73.09;98366.78;5461071;26;20505;-58
2024/04/09 03:51:05;;;;;;;0.00;0.00;;;;;;;16.35;72.74;98378.75;5460273;26;20081;-59
2024/04/09 03:53:35;;;;;;;0.00;0.00;;;;;;;16.47;71.93;98389.84;5434992;26;20943;-59
2024/04/09 03:56:06;;;;;;;0.00;0.00;;;;;;;16.52;71.52;98378.13;5468053;26;20006;-59
2024/04/09 03:58:37;;;;;;;0.00;0.00;;;;;;;16.62;71.36;98367.09;5468065;26;20017;-59
2024/04/09 04:01:03;;;;;;;0.05;0.05;;;;;;;16.69;71.62;98372.09;5455719;26;20479;-59
2024/04/09 04:03:33;;;;;;;0.00;0.00;;;;;;;16.72;73.20;98360.66;5463851;26;20017;-59
2024/04/09 04:06:00;;;;;;;;;;;;;;;16.78;75.09;98370.31;5468766;26;20014;-59
2024/04/09 04:08:30;;;;;;;0.00;0.00;;;;;;;16.54;76.70;98363.19;5428429;26;19935;-59
2024/04/09 04:10:56;;;;;;;;;;;;;;;16.44;78.95;98352.59;5454796;26;20022;-59
2024/04/09 04:13:29;;;;;;;0.00;0.00;;;;;;;16.35;80.55;98346.31;5457328;26;21086;-58
2024/04/09 04:15:59;;;;;;;0.00;0.00;;;;;;;16.22;82.36;98355.19;5453841;26;20015;-59
2024/04/09 04:18:27;;;;;;;;;;;;;;;16.11;83.06;98368.91;5460519;26;20014;-58
2024/04/09 04:20:54;;;;;;;0.00;0.00;;;;;;;16.03;83.81;98369.63;5453772;26;19924;-58
2024/04/09 04:23:23;;;;;;;0.10;0.10;;;;;;;15.85;86.72;98340.75;5424383;26;20002;-59
2024/04/09 04:25:54;;;;;;;0.03;0.03;;;;;;;15.69;89.13;98386.13;5459569;26;20002;-58
2024/04/09 04:28:23;;;;;;;0.00;0.00;;;;;;;15.33;90.45;98424.53;5426587;26;20560;-59
2024/04/09 04:30:52;;;;;;;0.00;0.00;;;;;;;15.36;93.67;98437.44;5458875;26;19999;-59
2024/04/09 04:33:21;;;;;;;0.08;0.08;;;;;;;15.38;94.78;98424.44;5429544;26;20014;-59
2024/04/09 04:35:47;;;;;;;0.00;0.00;;;;;;;15.35;94.10;98429.59;5453127;26;20340;-59
2024/04/09 04:38:17;;;;;;;0.00;0.00;;;;;;;15.27;95.46;98418.38;5462632;26;20464;-59
2024/04/09 04:40:46;;;;;;;0.00;0.00;;;;;;;15.27;96.50;98406.78;5460732;26;20014;-59
2024/04/09 04:43:15;;;;;;;0.00;0.00;;;;;;;15.40;97.22;98372.81;5453693;26;20025;-59
2024/04/09 04:45:42;;;;;;;0.00;0.00;;;;;;;15.26;99.30;98330.41;5435311;26;20427;-58
2024/04/09 04:48:14;;;;;;;0.00;0.00;;;;;;;15.22;100.00;98318.56;5437611;26;20003;-58
2024/04/09 04:50:40;;;;;;;0.00;0.00;;;;;;;15.02;100.00;98356.69;5451743;26;20022;-57
2024/04/09 04:53:09;;;;;;;0.03;0.03;;;;;;;15.16;100.00;98357.56;5463506;26;20018;-58
2024/04/09 04:55:35;;;;;;;0.05;0.05;;;;;;;14.82;100.00;98345.09;5467528;26;20539;-58
2024/04/09 04:58:05;;;;;;;0.00;0.00;;;;;;;15.01;100.00;98360.50;5448680;26;20109;-57
2024/04/09 05:00:34;;;;;;;0.00;0.00;;;;;;;14.67;100.00;98388.44;5463932;26;20022;-58
2024/04/09 05:03:00;;;;;;;0.10;0.10;;;;;;;14.69;100.00;98397.06;5458328;26;20002;-59
2024/04/09 05:05:32;;;;;;;0.00;0.00;;;;;;;14.72;100.00;98412.66;5464675;26;20709;-58
2024/04/09 05:07:58;;;;;;;0.00;0.00;;;;;;;14.56;100.00;98446.31;5461291;26;19998;-58
2024/04/09 05:10:26;;;;;;;0.10;0.10;;;;;;;14.52;100.00;98461.41;5457392;26;20890;-58
2024/04/09 05:12:53;;;;;;;0.10;0.10;;;;;;;14.55;100.00;98471.66;5464326;26;20017;-58
2024/04/09 05:15:22;;;;;;;0.00;0.00;;;;;;;14.49;100.00;98494.34;5455354;26;20005;-58
2024/04/09 05:17:48;;;;;;;0.03;0.03;;;;;;;14.24;100.00;98488.13;5464084;26;20002;-58
2024/04/09 05:20:18;;;;;;;0.00;0.00;;;;;;;14.34;100.00;98482.63;5462449;26;20556;-58
2024/04/09 05:22:47;;;;;;;0.10;0.10;;;;;;;14.29;100.00;98477.28;5428475;26;20033;-58
2024/04/09 05:25:16;;;;;;;0.00;0.00;;;;;;;14.22;100.00;98479.50;5450902;26;20235;-58
2024/04/09 05:27:44;;;;;;;0.10;0.10;;;;;;;14.32;100.00;98463.25;5454293;26;20006;-58
2024/04/09 05:30:13;;;;;;;0.00;0.00;;;;;;;14.24;100.00;98458.47;5466592;26;20006;-58
2024/04/09 05:32:41;;;;;;;0.00;0.00;;;;;;;14.08;100.00;98462.41;5465070;26;20082;-58
2024/04/09 05:35:11;;;;;;;0.00;0.00;;;;;;;13.85;100.00;98478.22;5452747;26;20003;-58
2024/04/09 05:37:37;;;;;;;0.10;0.10;;;;;;;14.10;100.00;98473.69;5458150;26;20006;-58
2024/04/09 05:40:11;;;;;;;0.00;0.00;;;;;;;13.92;100.00;98489.47;5455131;26;20002;-58
2024/04/09 05:42:38;;;;;;;0.10;0.10;;;;;;;13.97;100.00;98500.22;5452367;26;20032;-58
2024/04/09 05:45:09;;;;;;;0.10;0.10;;;;;;;13.94;100.00;98513.44;5424187;26;20017;-58
2024/04/09 05:47:35;;;;;;;0.10;0.10;;;;;;;13.74;100.00;98517.91;5447143;26;20002;-58
2024/04/09 05:50:05;;;;;;;0.10;0.10;;;;;;;13.81;100.00;98517.59;5456367;26;20310;-58
2024/04/09 05:52:32;;;;;;;0.00;0.00;;;;;;;13.84;100.00;98527.78;5451481;26;20445;-58
2024/04/09 05:55:00;;;;;;;0.00;0.00;;;;;;;13.90;100.00;98520.47;5464785;26;20021;-58
2024/04/09 05:57:32;;;;;;;0.10;0.10;;;;;;;14.01;100.00;98522.81;5466017;26;20011;-59
2024/04/09 06:00:05;;;;;;;0.10;0.10;;;;;;;14.12;100.00;98520.03;5454946;26;19999;-58
2024/04/09 06:02:38;;;;;;;0.00;0.00;;;;;;;14.09;100.00;98518.72;5425927;26;20021;-58
2024/04/09 06:05:07;;;;;;;0.10;0.10;;;;;;;14.01;100.00;98500.47;5458836;26;20002;-58
2024/04/09 06:07:33;;;;;;;0.00;0.00;;;;;;;14.16;100.00;98518.38;5456597;26;20018;-58
2024/04/09 06:10:03;;;;;;;0.10;0.10;;;;;;;14.16;100.00;98532.66;5388227;26;20021;-58
2024/04/09 06:12:32;;;;;;;0.10;0.10;;;;;;;14.12;100.00;98525.41;5377148;26;19999;-60
2024/04/09 06:15:01;;;;;;;0.10;0.10;;;;;;;14.27;100.00;98533.38;5407958;26;20004;-58
2024/04/09 06:17:28;;;;;;;0.10;0.10;;;;;;;14.01;100.00;98538.19;5384528;26;20233;-58
2024/04/09 06:19:57;;;;;;;0.10;0.10;;;;;;;14.19;100.00;98550.94;5387895;26;20077;-58
2024/04/09 06:22:23;;;;;;;0.10;0.10;;;;;;;14.10;100.00;98535.69;5386112;26;20057;-58
2024/04/09 06:24:52;;;;;;;0.00;0.00;;;;;;;13.94;100.00;98537.69;5385406;26;20022;-58
2024/04/09 06:27:18;;;;;;;0.10;0.10;;;;;;;14.09;100.00;98547.56;5373067;26;20342;-58
2024/04/09 06:29:51;;;;;;;0.10;0.10;;;;;;;14.00;100.00;98575.09;5374336;26;20444;-58
2024/04/09 06:32:17;;;;;;;0.10;0.10;;;;;;;14.08;100.00;98570.16;5374223;26;20039;-58
2024/04/09 06:34:54;;;;;;;0.10;0.10;;;;;;;14.10;100.00;98589.56;5372899;26;20340;-58
2024/04/09 06:37:21;;;;;;;0.10;0.10;;;;;;;14.01;100.00;98589.38;5399086;26;20445;-58
2024/04/09 06:39:49;;;;;;;0.03;0.03;;;;;;;14.01;100.00;98592.88;5416348;26;20007;-58
2024/04/09 06:42:15;;;;;;;0.10;0.10;;;;;;;14.11;100.00;98605.47;5383692;26;20007;-58
2024/04/09 06:44:46;;;;;;;0.00;0.00;;;;;;;13.87;100.00;98605.34;5389935;26;21087;-58
2024/04/09 06:47:16;;;;;;;0.00;0.00;;;;;;;13.89;100.00;98619.34;5392802;26;20004;-58
2024/04/09 06:49:47;;;;;;;0.00;0.00;;;;;;;13.65;100.00;98626.47;5377433;26;20008;-58
2024/04/09 06:52:13;;;;;;;0.10;0.10;;;;;;;13.54;96.97;98631.91;5385937;26;20084;-58
2024/04/09 06:54:42;;;;;;;0.10;0.10;;;;;;;13.43;94.22;98622.28;5389397;26;20008;-58
2024/04/09 06:57:09;;;;;;;0.00;0.00;;;;;;;13.15;88.49;98629.06;5376771;26;20403;-58
2024/04/09 06:59:40;;;;;;;0.10;0.10;;;;;;;13.09;87.52;98630.97;5373109;26;20634;-58
2024/04/09 07:02:09;;;;;;;0.10;0.10;;;;;;;12.86;88.79;98629.69;5393059;26;20007;-58
2024/04/09 07:04:40;;;;;;;0.03;0.03;;;;;;;12.84;88.89;98633.72;5386982;26;20008;-58
2024/04/09 07:07:06;;;;;;;0.10;0.10;;;;;;;12.70;91.46;98638.84;5392026;26;20023;-58
2024/04/09 07:09:35;;;;;;;0.10;0.10;;;;;;;12.53;90.94;98660.63;5438585;26;20838;-58
2024/04/09 07:12:02;;;;;;;0.10;0.10;;;;;;;12.52;91.64;98669.75;5467721;26;20013;-58
2024/04/09 07:14:31;;;;;;;0.10;0.10;;;;;;;12.40;90.17;98688.03;5454882;26;20014;-58
2024/04/09 07:16:57;;;;;;;0.20;0.20;;;;;;;12.22;90.92;98684.78;5463251;26;20006;-58
2024/04/09 07:19:27;;;;;;;0.10;0.10;;;;;;;12.41;89.86;98678.91;5457356;26;20040;-58
2024/04/09 07:21:55;;;;;;;0.20;0.20;;;;;;;12.41;89.98;98679.72;5465178;26;20022;-58
2024/04/09 07:24:24;;;;;;;0.10;0.10;;;;;;;12.54;87.91;98685.63;5467727;26;20076;-58
2024/04/09 07:26:50;;;;;;;0.10;0.10;;;;;;;12.39;87.48;98686.44;5462351;26;20088;-58
2024/04/09 07:29:21;;;;;;;0.10;0.10;;;;;;;12.43;86.54;98688.31;5448566;26;20003;-58
2024/04/09 07:31:50;;;;;;;0.10;0.10;;;;;;;12.24;88.56;98693.38;5457269;26;20021;-58
2024/04/09 07:34:22;;;;;;;0.17;0.17;;;;;;;12.26;87.57;98706.56;5429685;26;20022;-58
2024/04/09 07:36:50;;;;;;;0.10;0.10;;;;;;;12.12;86.97;98714.31;5459639;26;19998;-58
2024/04/09 07:39:22;;;;;;;0.10;0.10;;;;;;;12.07;86.67;98712.41;5462797;26;20010;-58
2024/04/09 07:41:51;;;;;;;0.10;0.10;;;;;;;12.09;87.44;98709.47;5455754;26;20330;-58
2024/04/09 07:44:19;;;;;;;0.15;0.15;;;;;;;11.93;88.89;98713.16;5441947;26;20003;-58
2024/04/09 07:46:48;;;;;;;0.10;0.10;;;;;;;12.04;90.01;98707.56;5465203;26;20101;-58
2024/04/09 07:49:17;;;;;;;0.10;0.10;;;;;;;12.26;90.08;98720.81;5455137;26;20079;-58
2024/04/09 07:51:43;;;;;;;0.20;0.20;;;;;;;12.41;92.27;98733.47;5465237;26;20320;-58
2024/04/09 07:54:15;;;;;;;0.10;0.10;;;;;;;12.39;93.00;98746.34;5452805;26;20438;-58
2024/04/09 07:56:43;;;;;;;0.10;0.10;;;;;;;12.23;92.93;98766.19;5464345;26;20006;-58
2024/04/09 07:59:12;;;;;;;0.10;0.10;;;;;;;12.25;95.54;98756.78;5460812;26;20015;-58
2024/04/09 08:01:39;;;;;;;0.10;0.10;;;;;;;12.03;96.78;98748.13;5478860;26;20017;-58
2024/04/09 08:04:07;;;;;;;0.17;0.17;;;;;;;11.98;98.36;98756.16;5468324;26;20006;-58
2024/04/09 08:06:33;;;;;;;0.10;0.10;;;;;;;11.75;99.25;98747.44;5465472;26;20457;-58
2024/04/09 08:09:02;;;;;;;0.10;0.10;;;;;;;11.64;97.72;98759.22;5462452;26;20018;-58
2024/04/09 08:11:28;;;;;;;0.10;0.10;;;;;;;11.51;100.00;98781.16;5438402;26;20002;-58
2024/04/09 08:14:00;;;;;;;0.20;0.20;;;;;;;11.74;99.18;98799.53;5474218;26;20020;-58
2024/04/09 08:16:28;;;;;;;0.20;0.20;;;;;;;11.63;99.36;98776.38;5453487;26;20014;-58
2024/04/09 08:18:57;;;;;;;0.13;0.13;;;;;;;11.44;98.78;98744.63;5456079;26;20002;-58
2024/04/09 08:21:23;;;;;;;0.10;0.10;;;;;;;11.60;100.00;98728.59;5469939;26;20010;-58
2024/04/09 08:23:52;;;;;;;0.17;0.17;;;;;;;11.34;100.00;98736.50;5455420;26;20006;-58
2024/04/09 08:26:18;;;;;;;0.10;0.10;;;;;;;11.18;100.00;98764.28;5455965;26;20042;-58
2024/04/09 08:28:47;;;;;;;0.10;0.10;;;;;;;11.09;100.00;98804.19;5453889;26;20003;-58
2024/04/09 08:31:17;;;;;;;0.20;0.20;;;;;;;11.09;100.00;98824.84;5464785;26;20872;-58
2024/04/09 08:33:52;;;;;;;0.10;0.10;;;;;;;10.97;100.00;98838.41;5455018;26;20792;-58
2024/04/09 08:36:18;;;;;;;0.10;0.10;;;;;;;10.85;100.00;98837.75;5465874;26;20061;-58
2024/04/09 08:38:47;;;;;;;0.20;0.20;;;;;;;10.91;100.00;98852.84;5445282;26;20478;-59
2024/04/09 08:41:16;;;;;;;0.20;0.20;;;;;;;10.77;100.00;98863.16;5434914;26;20069;-58
2024/04/09 08:43:47;;;;;;;0.20;0.20;;;;;;;10.90;100.00;98878.81;5452712;26;20022;-58
2024/04/09 08:46:15;;;;;;;0.10;0.10;;;;;;;10.93;100.00;98880.19;5459682;26;19998;-59
2024/04/09 08:48:44;;;;;;;0.20;0.20;;;;;;;10.95;100.00;98884.25;5443328;26;20007;-58
2024/04/09 08:51:11;;;;;;;0.20;0.20;;;;;;;10.84;100.00;98871.81;5458252;26;20014;-58
2024/04/09 08:53:40;;;;;;;0.20;0.20;;;;;;;10.80;100.00;98878.72;5457174;26;20012;-58
2024/04/09 08:56:06;;;;;;;0.20;0.20;;;;;;;10.75;100.00;98867.94;5466436;26;20107;-58
2024/04/09 08:58:35;;;;;;;0.20;0.20;;;;;;;10.60;100.00;98860.56;5457721;26;20017;-58
2024/04/09 09:01:01;;;;;;;0.17;0.17;;;;;;;10.88;100.00;98862.19;5452417;26;20563;-58
2024/04/09 09:03:33;;;;;;;0.20;0.20;;;;;;;10.74;100.00;98861.78;5459397;26;20006;-58
2024/04/09 09:06:00;;;;;;;0.10;0.10;;;;;;;10.62;100.00;98863.00;5448297;26;20478;-58
2024/04/09 09:08:29;;;;;;;0.20;0.20;;;;;;;10.71;100.00;98866.84;5427184;26;20002;-58
2024/04/09 09:10:55;;;;;;;0.20;0.20;;;;;;;10.85;100.00;98876.09;5465285;26;21133;-58
2024/04/09 09:13:23;;;;;;;0.17;0.17;;;;;;;10.68;100.00;98867.34;5457084;26;20011;-58
2024/04/09 09:15:53;;;;;;;0.10;0.10;;;;;;;10.93;100.00;98885.56;5430030;26;20427;-58
2024/04/09 09:18:24;;;;;;;0.20;0.20;;;;;;;10.87;97.17;98895.44;5450668;26;20079;-58
2024/04/09 09:21:00;;;;;;;0.20;0.20;;;;;;;10.97;94.54;98881.31;5469390;26;20002;-58
2024/04/09 09:23:28;;;;;;;0.20;0.20;;;;;;;10.86;95.50;98880.41;5425414;26;20002;-58
2024/04/09 09:25:55;;;;;;;0.30;0.30;;;;;;;11.18;96.37;98885.81;5456859;26;20689;-58
2024/04/09 09:28:26;;;;;;;0.20;0.20;;;;;;;11.33;97.96;98885.16;5430602;26;20010;-58
2024/04/09 09:30:54;;;;;;;0.20;0.20;;;;;;;11.56;97.25;98899.28;5433244;26;20014;-58
2024/04/09 09:33:26;;;;;;;0.17;0.17;;;;;;;11.47;97.20;98906.19;5458797;26;20516;-58
2024/04/09 09:35:52;;;;;;;0.13;0.13;;;;;;;11.75;95.71;98900.47;5455319;26;20042;-58
2024/04/09 09:38:24;;;;;;;0.10;0.10;;;;;;;11.96;96.05;98908.72;5457976;26;20012;-58
2024/04/09 09:40:51;;;;;;;0.15;0.15;;;;;;;11.70;96.18;98913.06;5462414;26;20082;-58
2024/04/09 09:43:24;;;;;;;0.20;0.20;;;;;;;11.24;96.69;98913.50;5431621;26;20330;-59
2024/04/09 09:45:50;;;;;;;0.17;0.17;;;;;;;11.34;96.57;98921.63;5457276;26;20006;-58
2024/04/09 09:48:20;;;;;;;0.10;0.10;;;;;;;11.24;100.00;98929.59;5438312;26;20018;-58
2024/04/09 09:50:56;;;;;;;0.20;0.20;;;;;;;10.99;100.00;98922.09;5455803;26;20101;-58
2024/04/09 09:53:28;;;;;;;0.10;0.10;;;;;;;10.66;100.00;98917.69;5456373;26;20015;-58
2024/04/09 09:55:55;;;;;;;0.20;0.20;;;;;;;10.78;100.00;98934.47;5462445;26;20043;-58
2024/04/09 09:58:25;;;;;;;0.20;0.20;;;;;;;10.60;100.00;98956.22;5474933;26;20338;-58
2024/04/09 10:00:52;;;;;;;0.10;0.10;;;;;;;10.54;100.00;98961.53;5465613;26;20002;-58
2024/04/09 10:03:21;;;;;;;0.10;0.10;;;;;;;10.48;100.00;98970.56;5469481;26;20302;-58
2024/04/09 10:05:52;;;;;;;0.13;0.13;;;;;;;10.60;100.00;98973.13;5453026;26;20032;-58
2024/04/09 10:08:21;;;;;;;0.10;0.10;;;;;;;10.64;100.00;98978.81;5460900;26;20070;-58
2024/04/09 10:10:52;;;;;;;0.20;0.20;;;;;;;10.44;100.00;98984.72;5469509;26;20018;-59
2024/04/09 10:13:21;;;;;;;0.10;0.10;;;;;;;10.22;100.00;98984.63;5456841;26;20684;-58
2024/04/09 10:15:48;;;;;;;0.17;0.17;;;;;;;10.20;99.22;99000.94;5458169;26;20009;-58
2024/04/09 10:18:33;;;;;;;0.20;0.20;;;;;;;10.34;99.25;99004.94;5467633;26;20006;-58
2024/04/09 10:21:00;;;;;;;0.20;0.20;;;;;;;10.50;97.04;99005.94;5463208;26;20006;-58
2024/04/09 10:23:31;;;;;;;0.20;0.20;;;;;;;10.71;98.72;99016.97;5465854;26;20017;-58
2024/04/09 10:26:01;;;;;;;0.20;0.20;;;;;;;10.64;97.47;99019.00;5456115;26;20551;-57
2024/04/09 10:28:31;;;;;;;0.20;0.20;;;;;;;10.65;100.00;99012.56;5450849;26;20056;-58
2024/04/09 10:30:59;;;;;;;0.20;0.20;;;;;;;10.59;97.87;99009.03;5448316;26;20013;-60
2024/04/09 10:33:33;;;;;;;0.20;0.20;;;;;;;10.44;98.96;99014.97;5464397;26;20533;-58
2024/04/09 10:35:59;;;;;;;0.20;0.20;;;;;;;10.48;97.31;99016.13;5461547;26;20021;-57
2024/04/09 10:38:28;;;;;;;0.30;0.30;;;;;;;10.37;96.48;99019.69;5463801;26;20039;-58
2024/04/09 10:40:55;;;;;;;0.20;0.20;;;;;;;10.34;95.75;99022.88;5429315;26;20007;-58
2024/04/09 10:43:27;;;;;;;0.30;0.30;;;;;;;10.59;92.94;99022.44;5476070;26;20020;-58
2024/04/09 10:45:54;;;;;;;0.20;0.20;;;;;;;10.51;94.28;99029.03;5397767;26;20428;-58
2024/04/09 10:48:25;;;;;;;0.20;0.20;;;;;;;10.67;92.46;99029.22;5464113;26;20002;-58
2024/04/09 10:50:51;;;;;;;0.20;0.20;;;;;;;10.64;92.85;99029.72;5432429;26;20320;-58
2024/04/09 10:53:21;;;;;;;0.20;0.20;;;;;;;10.46;92.19;99028.94;5439750;26;19999;-57
2024/04/09 10:55:47;;;;;;;0.20;0.20;;;;;;;10.52;92.95;99025.28;5462527;26;20366;-60
2024/04/09 10:58:17;;;;;;;0.20;0.20;;;;;;;10.60;91.47;99017.88;5463560;26;20474;-58
2024/04/09 11:00:48;;;;;;;0.28;0.28;;;;;;;10.66;91.82;99025.75;5461226;26;20409;-58
2024/04/09 11:03:17;;;;;;;0.20;0.20;;;;;;;10.53;88.18;99047.50;5431810;26;19998;-59
2024/04/09 11:05:44;;;;;;;0.17;0.17;;;;;;;10.55;90.15;99051.56;5449592;26;20084;-58
2024/04/09 11:08:12;;;;;;;0.13;0.13;;;;;;;10.41;87.98;99055.66;5454417;26;20003;-58
2024/04/09 11:10:39;;;;;;;0.20;0.20;;;;;;;10.58;88.27;99067.19;5451010;26;21648;-58
2024/04/09 11:13:09;;;;;;;0.30;0.30;;;;;;;10.73;87.75;99055.03;5423344;26;20018;-58
2024/04/09 11:15:38;;;;;;;0.30;0.30;;;;;;;11.09;85.18;99059.00;5444684;26;20010;-58
2024/04/09 11:18:20;;;;;;;0.20;0.20;;;;;;;10.97;83.99;99058.31;5458449;26;20010;-58
2024/04/09 11:20:55;;;;;;;0.20;0.20;;;;;;;11.20;83.79;99055.34;5458129;26;20010;-57
2024/04/09 11:23:25;;;;;;;0.30;0.30;;;;;;;11.26;81.72;99050.88;5442870;26;20002;-58
2024/04/09 11:25:57;;;;;;;0.20;0.20;;;;;;;11.37;81.01;99039.19;5455939;26;20013;-58
2024/04/09 11:28:27;;;;;;;0.20;0.20;;;;;;;11.06;80.60;99046.09;5453070;26;20025;-58
2024/04/09 11:30:55;;;;;;;0.20;0.20;;;;;;;11.59;80.99;99044.50;5447304;26;20087;-58
2024/04/09 11:33:29;;;;;;;0.13;0.13;;;;;;;11.59;78.64;99055.25;5444330;26;20030;-58
2024/04/09 11:35:57;;;;;;;0.10;0.10;;;;;;;11.87;77.92;99062.25;5457757;26;20018;-59
2024/04/09 11:38:26;;;;;;;0.20;0.20;;;;;;;11.82;75.52;99064.84;5432271;26;20019;-58
2024/04/09 11:40:52;;;;;;;0.20;0.20;;;;;;;11.99;73.22;99059.41;5434190;26;20029;-58